Terminal Aerodrome Forecast
Issued by NWS Missoula, MT

Home | Current Version | Previous Version | Text Only | Print | Product List | Glossary On
Versions: 1 2 3 4 5 6 7 8 9 10 11 12 13 14 15
000
FTUS45 KMSO 270125 AAA
TAFGPI
TAF AMD
KGPI 270125Z 2701/2724 02010G15KT P6SM SCT090
     FM270400 02010G15KT P6SM VCTS SCT060CB SCT080
     FM271000 VRB04KT P6SM SCT150=

USA.gov is the U.S. government's official web portal to all federal, state and local government web resources and services.